sensor_id;sensor_type;location;lat;lon;timestamp;temperature;humidity
16955;DHT22;8594;52.052;8.354;2023-05-14T00:01:16;18.30;96.90
16955;DHT22;8594;52.052;8.354;2023-05-14T00:03:43;18.30;97.40
16955;DHT22;8594;52.052;8.354;2023-05-14T00:06:09;18.20;97.00
16955;DHT22;8594;52.052;8.354;2023-05-14T00:08:36;18.20;96.90
16955;DHT22;8594;52.052;8.354;2023-05-14T00:11:03;18.20;97.30
16955;DHT22;8594;52.052;8.354;2023-05-14T00:13:30;18.40;96.80
16955;DHT22;8594;52.052;8.354;2023-05-14T00:15:57;18.40;96.50
16955;DHT22;8594;52.052;8.354;2023-05-14T00:18:25;18.60;96.00
16955;DHT22;8594;52.052;8.354;2023-05-14T00:20:52;18.80;95.20
16955;DHT22;8594;52.052;8.354;2023-05-14T00:23:19;18.70;95.30
16955;DHT22;8594;52.052;8.354;2023-05-14T00:25:46;18.70;95.40
16955;DHT22;8594;52.052;8.354;2023-05-14T00:28:13;18.60;95.40
16955;DHT22;8594;52.052;8.354;2023-05-14T00:30:40;18.40;95.70
16955;DHT22;8594;52.052;8.354;2023-05-14T00:33:07;18.20;96.10
16955;DHT22;8594;52.052;8.354;2023-05-14T00:35:35;18.00;96.40
16955;DHT22;8594;52.052;8.354;2023-05-14T00:38:02;18.00;96.50
16955;DHT22;8594;52.052;8.354;2023-05-14T00:40:29;17.80;96.80
16955;DHT22;8594;52.052;8.354;2023-05-14T00:42:56;18.00;96.40
16955;DHT22;8594;52.052;8.354;2023-05-14T00:45:23;18.10;96.10
16955;DHT22;8594;52.052;8.354;2023-05-14T00:47:51;18.10;96.20
16955;DHT22;8594;52.052;8.354;2023-05-14T00:50:19;18.00;97.10
16955;DHT22;8594;52.052;8.354;2023-05-14T00:52:48;17.80;97.80
16955;DHT22;8594;52.052;8.354;2023-05-14T00:55:15;17.90;97.90
16955;DHT22;8594;52.052;8.354;2023-05-14T00:57:42;17.90;97.90
16955;DHT22;8594;52.052;8.354;2023-05-14T01:00:10;17.80;98.10
16955;DHT22;8594;52.052;8.354;2023-05-14T01:02:37;17.70;98.70
16955;DHT22;8594;52.052;8.354;2023-05-14T01:05:04;17.60;99.10
16955;DHT22;8594;52.052;8.354;2023-05-14T01:07:53;17.50;99.30
16955;DHT22;8594;52.052;8.354;2023-05-14T01:10:36;17.50;99.50
16955;DHT22;8594;52.052;8.354;2023-05-14T01:13:11;17.50;99.90
16955;DHT22;8594;52.052;8.354;2023-05-14T01:15:44;17.60;99.50
16955;DHT22;8594;52.052;8.354;2023-05-14T01:18:15;17.70;99.50
16955;DHT22;8594;52.052;8.354;2023-05-14T01:20:44;17.00;99.90
16955;DHT22;8594;52.052;8.354;2023-05-14T01:23:13;17.10;99.90
16955;DHT22;8594;52.052;8.354;2023-05-14T01:25:39;17.20;99.90
16955;DHT22;8594;52.052;8.354;2023-05-14T01:28:12;17.30;99.90
16955;DHT22;8594;52.052;8.354;2023-05-14T01:30:46;17.20;99.90
16955;DHT22;8594;52.052;8.354;2023-05-14T01:33:18;17.20;99.90
16955;DHT22;8594;52.052;8.354;2023-05-14T01:35:45;17.20;99.90
16955;DHT22;8594;52.052;8.354;2023-05-14T01:38:16;17.40;99.90
16955;DHT22;8594;52.052;8.354;2023-05-14T01:40:46;17.60;99.90
16955;DHT22;8594;52.052;8.354;2023-05-14T01:43:14;17.70;99.90
16955;DHT22;8594;52.052;8.354;2023-05-14T01:45:42;17.70;99.90
16955;DHT22;8594;52.052;8.354;2023-05-14T01:48:09;17.60;99.90
16955;DHT22;8594;52.052;8.354;2023-05-14T01:50:36;17.60;99.90
16955;DHT22;8594;52.052;8.354;2023-05-14T01:53:03;17.50;99.90
16955;DHT22;8594;52.052;8.354;2023-05-14T01:55:31;17.40;99.90
16955;DHT22;8594;52.052;8.354;2023-05-14T01:57:58;17.40;99.90
16955;DHT22;8594;52.052;8.354;2023-05-14T02:00:25;17.10;99.90
16955;DHT22;8594;52.052;8.354;2023-05-14T02:02:52;16.70;99.90
16955;DHT22;8594;52.052;8.354;2023-05-14T02:05:19;15.80;99.90
16955;DHT22;8594;52.052;8.354;2023-05-14T02:07:46;15.40;99.90
16955;DHT22;8594;52.052;8.354;2023-05-14T02:10:13;15.40;99.90
16955;DHT22;8594;52.052;8.354;2023-05-14T02:12:41;15.60;99.90
16955;DHT22;8594;52.052;8.354;2023-05-14T02:15:08;15.80;99.90
16955;DHT22;8594;52.052;8.354;2023-05-14T02:17:36;16.00;99.90
16955;DHT22;8594;52.052;8.354;2023-05-14T02:20:04;16.10;99.90
16955;DHT22;8594;52.052;8.354;2023-05-14T02:22:32;16.10;99.90
16955;DHT22;8594;52.052;8.354;2023-05-14T02:24:58;16.20;99.90
16955;DHT22;8594;52.052;8.354;2023-05-14T02:27:25;16.20;99.90
16955;DHT22;8594;52.052;8.354;2023-05-14T02:29:53;16.40;99.90
16955;DHT22;8594;52.052;8.354;2023-05-14T02:32:25;16.30;99.90
16955;DHT22;8594;52.052;8.354;2023-05-14T02:34:52;16.50;99.90
16955;DHT22;8594;52.052;8.354;2023-05-14T02:37:19;16.50;99.90
16955;DHT22;8594;52.052;8.354;2023-05-14T02:39:45;16.50;99.90
16955;DHT22;8594;52.052;8.354;2023-05-14T02:42:13;16.70;99.90
16955;DHT22;8594;52.052;8.354;2023-05-14T02:44:40;16.60;99.90
16955;DHT22;8594;52.052;8.354;2023-05-14T02:47:08;16.70;99.90
16955;DHT22;8594;52.052;8.354;2023-05-14T02:49:35;17.00;99.90
16955;DHT22;8594;52.052;8.354;2023-05-14T02:52:01;17.00;99.90
16955;DHT22;8594;52.052;8.354;2023-05-14T02:54:28;16.80;99.90
16955;DHT22;8594;52.052;8.354;2023-05-14T02:56:55;16.80;99.90
16955;DHT22;8594;52.052;8.354;2023-05-14T02:59:23;16.60;99.90
16955;DHT22;8594;52.052;8.354;2023-05-14T03:01:49;16.50;99.90
16955;DHT22;8594;52.052;8.354;2023-05-14T03:04:18;16.60;99.90
16955;DHT22;8594;52.052;8.354;2023-05-14T03:06:45;16.40;99.90
16955;DHT22;8594;52.052;8.354;2023-05-14T03:09:11;16.30;99.90
16955;DHT22;8594;52.052;8.354;2023-05-14T03:11:38;16.30;99.90
16955;DHT22;8594;52.052;8.354;2023-05-14T03:14:05;16.40;99.90
16955;DHT22;8594;52.052;8.354;2023-05-14T03:16:32;16.20;99.90
16955;DHT22;8594;52.052;8.354;2023-05-14T03:18:59;16.30;99.90
16955;DHT22;8594;52.052;8.354;2023-05-14T03:21:27;16.00;99.90
16955;DHT22;8594;52.052;8.354;2023-05-14T03:23:54;15.60;99.90
16955;DHT22;8594;52.052;8.354;2023-05-14T03:26:20;15.80;99.90
16955;DHT22;8594;52.052;8.354;2023-05-14T03:28:48;15.80;99.90
16955;DHT22;8594;52.052;8.354;2023-05-14T03:31:16;15.50;99.90
16955;DHT22;8594;52.052;8.354;2023-05-14T03:33:43;15.40;99.90
16955;DHT22;8594;52.052;8.354;2023-05-14T03:36:10;15.70;99.90
16955;DHT22;8594;52.052;8.354;2023-05-14T03:38:38;15.70;99.90
16955;DHT22;8594;52.052;8.354;2023-05-14T03:41:05;15.90;99.90
16955;DHT22;8594;52.052;8.354;2023-05-14T03:43:31;16.10;99.90
16955;DHT22;8594;52.052;8.354;2023-05-14T03:45:58;16.10;99.90
16955;DHT22;8594;52.052;8.354;2023-05-14T03:48:25;16.10;99.90
16955;DHT22;8594;52.052;8.354;2023-05-14T03:50:52;16.20;99.90
16955;DHT22;8594;52.052;8.354;2023-05-14T03:53:19;16.10;99.90
16955;DHT22;8594;52.052;8.354;2023-05-14T03:55:47;16.30;99.90
16955;DHT22;8594;52.052;8.354;2023-05-14T03:58:13;16.30;99.90
16955;DHT22;8594;52.052;8.354;2023-05-14T04:00:40;16.40;99.90
16955;DHT22;8594;52.052;8.354;2023-05-14T04:03:07;16.40;99.90
16955;DHT22;8594;52.052;8.354;2023-05-14T04:05:34;16.30;99.90
16955;DHT22;8594;52.052;8.354;2023-05-14T04:08:01;16.30;99.90
16955;DHT22;8594;52.052;8.354;2023-05-14T04:10:28;16.30;99.90
16955;DHT22;8594;52.052;8.354;2023-05-14T04:12:58;16.60;99.90
16955;DHT22;8594;52.052;8.354;2023-05-14T04:15:25;16.70;99.90
16955;DHT22;8594;52.052;8.354;2023-05-14T04:17:52;16.60;99.90
16955;DHT22;8594;52.052;8.354;2023-05-14T04:20:19;16.40;99.90
16955;DHT22;8594;52.052;8.354;2023-05-14T04:22:46;16.10;99.90
16955;DHT22;8594;52.052;8.354;2023-05-14T04:25:12;15.90;99.90
16955;DHT22;8594;52.052;8.354;2023-05-14T04:27:39;15.90;99.90
16955;DHT22;8594;52.052;8.354;2023-05-14T04:30:09;15.70;99.90
16955;DHT22;8594;52.052;8.354;2023-05-14T04:32:36;15.70;99.90
16955;DHT22;8594;52.052;8.354;2023-05-14T04:35:04;15.80;99.90
16955;DHT22;8594;52.052;8.354;2023-05-14T04:37:31;15.80;99.90
16955;DHT22;8594;52.052;8.354;2023-05-14T04:39:58;15.80;99.90
16955;DHT22;8594;52.052;8.354;2023-05-14T04:42:25;16.00;99.90
16955;DHT22;8594;52.052;8.354;2023-05-14T04:44:52;16.30;99.90
16955;DHT22;8594;52.052;8.354;2023-05-14T04:47:20;16.70;99.90
16955;DHT22;8594;52.052;8.354;2023-05-14T04:49:47;16.90;99.90
16955;DHT22;8594;52.052;8.354;2023-05-14T04:52:13;17.40;99.90
16955;DHT22;8594;52.052;8.354;2023-05-14T04:54:40;17.80;99.90
16955;DHT22;8594;52.052;8.354;2023-05-14T04:57:07;18.10;99.90
16955;DHT22;8594;52.052;8.354;2023-05-14T04:59:34;18.40;99.90
16955;DHT22;8594;52.052;8.354;2023-05-14T05:02:01;18.30;99.90
16955;DHT22;8594;52.052;8.354;2023-05-14T05:04:29;18.70;99.90
16955;DHT22;8594;52.052;8.354;2023-05-14T05:06:56;19.00;99.90
16955;DHT22;8594;52.052;8.354;2023-05-14T05:09:22;19.50;99.90
16955;DHT22;8594;52.052;8.354;2023-05-14T05:11:49;19.70;99.90
16955;DHT22;8594;52.052;8.354;2023-05-14T05:14:16;19.60;99.90
16955;DHT22;8594;52.052;8.354;2023-05-14T05:16:43;19.50;99.90
16955;DHT22;8594;52.052;8.354;2023-05-14T05:19:10;19.40;99.90
16955;DHT22;8594;52.052;8.354;2023-05-14T05:21:38;18.90;99.90
16955;DHT22;8594;52.052;8.354;2023-05-14T05:24:05;19.00;99.90
16955;DHT22;8594;52.052;8.354;2023-05-14T05:26:32;19.00;99.90
16955;DHT22;8594;52.052;8.354;2023-05-14T05:29:01;19.20;99.90
16955;DHT22;8594;52.052;8.354;2023-05-14T05:31:28;19.10;99.90
16955;DHT22;8594;52.052;8.354;2023-05-14T05:33:55;19.10;99.90
16955;DHT22;8594;52.052;8.354;2023-05-14T05:36:22;19.40;99.90
16955;DHT22;8594;52.052;8.354;2023-05-14T05:38:50;19.60;99.90
16955;DHT22;8594;52.052;8.354;2023-05-14T05:41:17;19.70;99.90
16955;DHT22;8594;52.052;8.354;2023-05-14T05:43:44;19.80;99.90
16955;DHT22;8594;52.052;8.354;2023-05-14T05:46:11;20.20;99.90
16955;DHT22;8594;52.052;8.354;2023-05-14T05:48:37;20.60;99.90
16955;DHT22;8594;52.052;8.354;2023-05-14T05:51:04;21.00;99.90
16955;DHT22;8594;52.052;8.354;2023-05-14T05:53:32;20.70;99.90
16955;DHT22;8594;52.052;8.354;2023-05-14T05:56:00;21.00;99.90
16955;DHT22;8594;52.052;8.354;2023-05-14T05:58:28;21.20;99.90
16955;DHT22;8594;52.052;8.354;2023-05-14T06:00:54;20.90;99.90
16955;DHT22;8594;52.052;8.354;2023-05-14T06:03:22;20.90;99.90
16955;DHT22;8594;52.052;8.354;2023-05-14T06:05:48;21.00;99.90
16955;DHT22;8594;52.052;8.354;2023-05-14T06:08:16;20.60;99.90
16955;DHT22;8594;52.052;8.354;2023-05-14T06:10:44;20.30;99.90
16955;DHT22;8594;52.052;8.354;2023-05-14T06:13:12;19.50;99.90
16955;DHT22;8594;52.052;8.354;2023-05-14T06:15:39;19.00;99.90
16955;DHT22;8594;52.052;8.354;2023-05-14T06:18:05;18.60;99.90
16955;DHT22;8594;52.052;8.354;2023-05-14T06:20:33;19.10;99.90
16955;DHT22;8594;52.052;8.354;2023-05-14T06:22:59;19.30;99.90
16955;DHT22;8594;52.052;8.354;2023-05-14T06:25:26;19.60;99.90
16955;DHT22;8594;52.052;8.354;2023-05-14T06:27:53;19.60;99.90
16955;DHT22;8594;52.052;8.354;2023-05-14T06:30:21;19.50;99.90
16955;DHT22;8594;52.052;8.354;2023-05-14T06:32:48;19.60;99.90
16955;DHT22;8594;52.052;8.354;2023-05-14T06:35:16;19.50;99.90
16955;DHT22;8594;52.052;8.354;2023-05-14T06:37:43;19.30;99.90
16955;DHT22;8594;52.052;8.354;2023-05-14T06:40:11;19.50;99.90
16955;DHT22;8594;52.052;8.354;2023-05-14T06:42:39;19.40;99.90
16955;DHT22;8594;52.052;8.354;2023-05-14T06:45:07;19.30;99.90
16955;DHT22;8594;52.052;8.354;2023-05-14T06:47:35;19.40;99.90
16955;DHT22;8594;52.052;8.354;2023-05-14T06:50:02;19.50;99.90
16955;DHT22;8594;52.052;8.354;2023-05-14T06:52:30;19.50;99.90
16955;DHT22;8594;52.052;8.354;2023-05-14T06:54:58;19.50;99.90
16955;DHT22;8594;52.052;8.354;2023-05-14T06:57:28;19.70;99.90
16955;DHT22;8594;52.052;8.354;2023-05-14T07:00:11;19.80;99.90
16955;DHT22;8594;52.052;8.354;2023-05-14T07:03:00;20.30;99.90
16955;DHT22;8594;52.052;8.354;2023-05-14T07:06:01;21.00;99.90
16955;DHT22;8594;52.052;8.354;2023-05-14T07:09:04;21.50;99.90
16955;DHT22;8594;52.052;8.354;2023-05-14T07:11:36;22.00;99.90
16955;DHT22;8594;52.052;8.354;2023-05-14T07:14:32;22.20;99.90
16955;DHT22;8594;52.052;8.354;2023-05-14T07:16:59;22.90;99.90
16955;DHT22;8594;52.052;8.354;2023-05-14T07:19:27;22.80;99.30
16955;DHT22;8594;52.052;8.354;2023-05-14T07:21:55;22.50;99.40
16955;DHT22;8594;52.052;8.354;2023-05-14T07:24:21;22.70;99.50
16955;DHT22;8594;52.052;8.354;2023-05-14T07:26:48;22.70;99.60
16955;DHT22;8594;52.052;8.354;2023-05-14T07:29:15;22.60;99.20
16955;DHT22;8594;52.052;8.354;2023-05-14T07:31:42;22.00;99.80
16955;DHT22;8594;52.052;8.354;2023-05-14T07:34:09;22.30;99.50
16955;DHT22;8594;52.052;8.354;2023-05-14T07:36:38;22.50;99.20
16955;DHT22;8594;52.052;8.354;2023-05-14T07:39:05;22.40;99.10
16955;DHT22;8594;52.052;8.354;2023-05-14T07:41:32;22.30;99.40
16955;DHT22;8594;52.052;8.354;2023-05-14T07:43:59;22.30;99.30
16955;DHT22;8594;52.052;8.354;2023-05-14T07:46:25;21.30;99.90
16955;DHT22;8594;52.052;8.354;2023-05-14T07:48:52;21.40;99.90
16955;DHT22;8594;52.052;8.354;2023-05-14T07:51:19;21.60;99.90
16955;DHT22;8594;52.052;8.354;2023-05-14T07:53:47;21.70;99.90
16955;DHT22;8594;52.052;8.354;2023-05-14T07:56:14;21.80;99.90
16955;DHT22;8594;52.052;8.354;2023-05-14T07:58:40;22.30;99.90
16955;DHT22;8594;52.052;8.354;2023-05-14T08:01:07;22.40;99.90
16955;DHT22;8594;52.052;8.354;2023-05-14T08:03:34;22.80;99.90
16955;DHT22;8594;52.052;8.354;2023-05-14T08:06:01;23.20;99.90
16955;DHT22;8594;52.052;8.354;2023-05-14T08:08:28;22.80;99.90
16955;DHT22;8594;52.052;8.354;2023-05-14T08:10:56;22.90;98.80
16955;DHT22;8594;52.052;8.354;2023-05-14T08:13:23;23.20;99.60
16955;DHT22;8594;52.052;8.354;2023-05-14T08:15:50;23.20;98.70
16955;DHT22;8594;52.052;8.354;2023-05-14T08:18:17;22.80;98.40
16955;DHT22;8594;52.052;8.354;2023-05-14T08:20:43;22.70;98.70
16955;DHT22;8594;52.052;8.354;2023-05-14T08:23:11;22.60;99.10
16955;DHT22;8594;52.052;8.354;2023-05-14T08:25:38;22.80;99.20
16955;DHT22;8594;52.052;8.354;2023-05-14T08:28:06;22.80;98.30
16955;DHT22;8594;52.052;8.354;2023-05-14T08:30:33;22.40;99.30
16955;DHT22;8594;52.052;8.354;2023-05-14T08:32:59;22.40;99.40
16955;DHT22;8594;52.052;8.354;2023-05-14T08:35:26;22.60;99.50
16955;DHT22;8594;52.052;8.354;2023-05-14T08:37:53;22.80;99.40
16955;DHT22;8594;52.052;8.354;2023-05-14T08:40:22;23.10;98.80
16955;DHT22;8594;52.052;8.354;2023-05-14T08:42:50;22.90;98.60
16955;DHT22;8594;52.052;8.354;2023-05-14T08:45:20;22.70;98.20
16955;DHT22;8594;52.052;8.354;2023-05-14T08:47:50;22.50;99.10
16955;DHT22;8594;52.052;8.354;2023-05-14T08:50:18;22.30;99.10
16955;DHT22;8594;52.052;8.354;2023-05-14T08:52:45;22.30;99.30
16955;DHT22;8594;52.052;8.354;2023-05-14T08:55:12;22.40;98.70
16955;DHT22;8594;52.052;8.354;2023-05-14T08:57:39;22.60;98.70
16955;DHT22;8594;52.052;8.354;2023-05-14T09:00:07;22.50;99.00
16955;DHT22;8594;52.052;8.354;2023-05-14T09:02:39;22.30;98.80
16955;DHT22;8594;52.052;8.354;2023-05-14T09:05:07;22.60;99.10
16955;DHT22;8594;52.052;8.354;2023-05-14T09:07:38;22.80;99.20
16955;DHT22;8594;52.052;8.354;2023-05-14T09:10:06;23.10;98.20
16955;DHT22;8594;52.052;8.354;2023-05-14T09:12:34;22.80;99.00
16955;DHT22;8594;52.052;8.354;2023-05-14T09:15:01;23.00;98.40
16955;DHT22;8594;52.052;8.354;2023-05-14T09:17:29;23.10;97.90
16955;DHT22;8594;52.052;8.354;2023-05-14T09:19:58;23.20;97.90
16955;DHT22;8594;52.052;8.354;2023-05-14T09:22:28;23.30;97.20
16955;DHT22;8594;52.052;8.354;2023-05-14T09:25:04;23.70;97.10
16955;DHT22;8594;52.052;8.354;2023-05-14T09:27:34;23.30;97.80
16955;DHT22;8594;52.052;8.354;2023-05-14T09:30:06;23.40;97.50
16955;DHT22;8594;52.052;8.354;2023-05-14T09:32:35;23.30;97.50
16955;DHT22;8594;52.052;8.354;2023-05-14T09:35:15;23.50;97.60
16955;DHT22;8594;52.052;8.354;2023-05-14T09:37:45;23.60;97.30
16955;DHT22;8594;52.052;8.354;2023-05-14T09:40:13;23.30;97.30
16955;DHT22;8594;52.052;8.354;2023-05-14T09:42:40;23.50;96.60
16955;DHT22;8594;52.052;8.354;2023-05-14T09:45:08;23.50;96.70
16955;DHT22;8594;52.052;8.354;2023-05-14T09:47:36;23.80;96.30
16955;DHT22;8594;52.052;8.354;2023-05-14T09:50:04;23.20;95.70
16955;DHT22;8594;52.052;8.354;2023-05-14T09:52:33;22.50;96.80
16955;DHT22;8594;52.052;8.354;2023-05-14T09:55:00;22.70;97.70
16955;DHT22;8594;52.052;8.354;2023-05-14T09:57:27;23.40;95.90
16955;DHT22;8594;52.052;8.354;2023-05-14T09:59:54;23.30;95.60
16955;DHT22;8594;52.052;8.354;2023-05-14T10:02:22;23.40;94.60
16955;DHT22;8594;52.052;8.354;2023-05-14T10:04:52;23.30;95.50
16955;DHT22;8594;52.052;8.354;2023-05-14T10:07:26;23.60;95.50
16955;DHT22;8594;52.052;8.354;2023-05-14T10:10:01;24.30;94.60
16955;DHT22;8594;52.052;8.354;2023-05-14T10:12:37;24.00;95.00
16955;DHT22;8594;52.052;8.354;2023-05-14T10:15:11;23.90;95.30
16955;DHT22;8594;52.052;8.354;2023-05-14T10:17:44;24.30;95.40
16955;DHT22;8594;52.052;8.354;2023-05-14T10:20:14;24.80;95.10
16955;DHT22;8594;52.052;8.354;2023-05-14T10:22:42;24.60;93.60
16955;DHT22;8594;52.052;8.354;2023-05-14T10:25:10;24.30;94.40
16955;DHT22;8594;52.052;8.354;2023-05-14T10:27:38;24.40;94.80
16955;DHT22;8594;52.052;8.354;2023-05-14T10:30:10;25.00;93.80
16955;DHT22;8594;52.052;8.354;2023-05-14T10:32:38;25.30;92.80
16955;DHT22;8594;52.052;8.354;2023-05-14T10:35:15;25.00;93.90
16955;DHT22;8594;52.052;8.354;2023-05-14T10:37:43;25.00;93.30
16955;DHT22;8594;52.052;8.354;2023-05-14T10:40:12;24.90;92.80
16955;DHT22;8594;52.052;8.354;2023-05-14T10:42:40;24.40;93.30
16955;DHT22;8594;52.052;8.354;2023-05-14T10:45:10;24.60;93.20
16955;DHT22;8594;52.052;8.354;2023-05-14T10:47:39;24.20;93.10
16955;DHT22;8594;52.052;8.354;2023-05-14T10:50:09;24.30;92.80
16955;DHT22;8594;52.052;8.354;2023-05-14T10:52:40;24.50;92.40
16955;DHT22;8594;52.052;8.354;2023-05-14T10:55:08;24.40;93.30
16955;DHT22;8594;52.052;8.354;2023-05-14T10:57:42;24.90;93.20
16955;DHT22;8594;52.052;8.354;2023-05-14T11:00:12;24.70;93.70
16955;DHT22;8594;52.052;8.354;2023-05-14T11:02:41;24.50;93.40
16955;DHT22;8594;52.052;8.354;2023-05-14T11:05:10;24.20;94.50
16955;DHT22;8594;52.052;8.354;2023-05-14T11:07:41;24.10;93.80
16955;DHT22;8594;52.052;8.354;2023-05-14T11:10:13;24.20;94.30
16955;DHT22;8594;52.052;8.354;2023-05-14T11:12:43;24.60;94.00
16955;DHT22;8594;52.052;8.354;2023-05-14T11:15:13;24.90;93.30
16955;DHT22;8594;52.052;8.354;2023-05-14T11:17:42;24.80;93.90
16955;DHT22;8594;52.052;8.354;2023-05-14T11:20:10;24.90;92.40
16955;DHT22;8594;52.052;8.354;2023-05-14T11:22:39;25.40;93.90
16955;DHT22;8594;52.052;8.354;2023-05-14T11:25:08;25.90;93.50
16955;DHT22;8594;52.052;8.354;2023-05-14T11:27:37;26.10;93.20
16955;DHT22;8594;52.052;8.354;2023-05-14T11:30:10;26.10;92.30
16955;DHT22;8594;52.052;8.354;2023-05-14T11:32:38;26.20;92.00
16955;DHT22;8594;52.052;8.354;2023-05-14T11:35:06;25.80;91.40
16955;DHT22;8594;52.052;8.354;2023-05-14T11:37:33;25.70;92.60
16955;DHT22;8594;52.052;8.354;2023-05-14T11:40:00;25.50;92.90
16955;DHT22;8594;52.052;8.354;2023-05-14T11:42:29;25.50;92.90
16955;DHT22;8594;52.052;8.354;2023-05-14T11:44:58;25.80;91.50
16955;DHT22;8594;52.052;8.354;2023-05-14T11:47:25;26.00;91.10
16955;DHT22;8594;52.052;8.354;2023-05-14T11:49:54;26.10;89.60
16955;DHT22;8594;52.052;8.354;2023-05-14T11:52:21;25.60;90.40
16955;DHT22;8594;52.052;8.354;2023-05-14T11:54:48;25.20;91.00
16955;DHT22;8594;52.052;8.354;2023-05-14T11:57:16;25.10;92.10
16955;DHT22;8594;52.052;8.354;2023-05-14T11:59:45;25.20;91.20
16955;DHT22;8594;52.052;8.354;2023-05-14T12:02:16;25.20;90.60
16955;DHT22;8594;52.052;8.354;2023-05-14T12:04:45;24.80;91.00
16955;DHT22;8594;52.052;8.354;2023-05-14T12:07:15;24.30;91.80
16955;DHT22;8594;52.052;8.354;2023-05-14T12:09:43;24.20;92.50
16955;DHT22;8594;52.052;8.354;2023-05-14T12:12:14;24.50;91.10
16955;DHT22;8594;52.052;8.354;2023-05-14T12:14:43;24.40;91.50
16955;DHT22;8594;52.052;8.354;2023-05-14T12:17:14;24.20;91.00
16955;DHT22;8594;52.052;8.354;2023-05-14T12:19:42;24.10;91.40
16955;DHT22;8594;52.052;8.354;2023-05-14T12:22:10;24.30;90.60
16955;DHT22;8594;52.052;8.354;2023-05-14T12:24:39;24.10;90.40
16955;DHT22;8594;52.052;8.354;2023-05-14T12:27:06;24.30;91.80
16955;DHT22;8594;52.052;8.354;2023-05-14T12:29:36;24.80;91.70
16955;DHT22;8594;52.052;8.354;2023-05-14T12:32:07;25.00;91.80
16955;DHT22;8594;52.052;8.354;2023-05-14T12:34:37;24.90;91.50
16955;DHT22;8594;52.052;8.354;2023-05-14T12:37:04;24.70;91.70
16955;DHT22;8594;52.052;8.354;2023-05-14T12:39:32;24.70;91.50
16955;DHT22;8594;52.052;8.354;2023-05-14T12:42:00;24.70;91.70
16955;DHT22;8594;52.052;8.354;2023-05-14T12:44:27;24.40;91.60
16955;DHT22;8594;52.052;8.354;2023-05-14T12:46:54;24.20;92.30
16955;DHT22;8594;52.052;8.354;2023-05-14T12:49:22;24.00;92.40
16955;DHT22;8594;52.052;8.354;2023-05-14T12:51:50;23.90;92.50
16955;DHT22;8594;52.052;8.354;2023-05-14T12:54:17;24.10;92.60
16955;DHT22;8594;52.052;8.354;2023-05-14T12:56:43;24.00;92.70
16955;DHT22;8594;52.052;8.354;2023-05-14T12:59:10;23.90;92.20
16955;DHT22;8594;52.052;8.354;2023-05-14T13:01:37;23.80;92.30
16955;DHT22;8594;52.052;8.354;2023-05-14T13:04:04;24.00;92.30
16955;DHT22;8594;52.052;8.354;2023-05-14T13:06:31;24.00;92.30
16955;DHT22;8594;52.052;8.354;2023-05-14T13:08:59;24.10;92.60
16955;DHT22;8594;52.052;8.354;2023-05-14T13:11:27;24.10;92.00
16955;DHT22;8594;52.052;8.354;2023-05-14T13:13:56;24.30;92.00
16955;DHT22;8594;52.052;8.354;2023-05-14T13:16:24;24.40;92.00
16955;DHT22;8594;52.052;8.354;2023-05-14T13:18:51;23.90;92.10
16955;DHT22;8594;52.052;8.354;2023-05-14T13:21:18;23.60;92.50
16955;DHT22;8594;52.052;8.354;2023-05-14T13:23:45;23.60;92.70
16955;DHT22;8594;52.052;8.354;2023-05-14T13:26:14;23.00;93.60
16955;DHT22;8594;52.052;8.354;2023-05-14T13:28:41;23.60;92.80
16955;DHT22;8594;52.052;8.354;2023-05-14T13:31:09;23.90;92.40
16955;DHT22;8594;52.052;8.354;2023-05-14T13:33:38;24.40;91.70
16955;DHT22;8594;52.052;8.354;2023-05-14T13:36:07;24.70;92.20
16955;DHT22;8594;52.052;8.354;2023-05-14T13:38:34;24.80;92.60
16955;DHT22;8594;52.052;8.354;2023-05-14T13:41:01;25.10;92.50
16955;DHT22;8594;52.052;8.354;2023-05-14T13:43:30;25.30;92.70
16955;DHT22;8594;52.052;8.354;2023-05-14T13:46:02;25.40;92.10
16955;DHT22;8594;52.052;8.354;2023-05-14T13:48:30;25.40;91.60
16955;DHT22;8594;52.052;8.354;2023-05-14T13:50:57;25.70;92.00
16955;DHT22;8594;52.052;8.354;2023-05-14T13:53:25;26.00;91.20
16955;DHT22;8594;52.052;8.354;2023-05-14T13:55:52;25.30;91.60
16955;DHT22;8594;52.052;8.354;2023-05-14T13:58:21;25.30;91.90
16955;DHT22;8594;52.052;8.354;2023-05-14T14:00:50;25.10;92.50
16955;DHT22;8594;52.052;8.354;2023-05-14T14:03:17;24.70;92.80
16955;DHT22;8594;52.052;8.354;2023-05-14T14:05:44;24.30;93.30
16955;DHT22;8594;52.052;8.354;2023-05-14T14:08:12;23.90;94.40
16955;DHT22;8594;52.052;8.354;2023-05-14T14:10:39;23.70;94.90
16955;DHT22;8594;52.052;8.354;2023-05-14T14:13:07;23.50;95.80
16955;DHT22;8594;52.052;8.354;2023-05-14T14:15:35;23.50;96.00
16955;DHT22;8594;52.052;8.354;2023-05-14T14:18:03;23.50;97.00
16955;DHT22;8594;52.052;8.354;2023-05-14T14:20:30;23.40;96.40
16955;DHT22;8594;52.052;8.354;2023-05-14T14:22:57;23.30;96.00
16955;DHT22;8594;52.052;8.354;2023-05-14T14:25:24;23.40;95.90
16955;DHT22;8594;52.052;8.354;2023-05-14T14:27:51;23.20;95.60
16955;DHT22;8594;52.052;8.354;2023-05-14T14:30:18;23.00;95.90
16955;DHT22;8594;52.052;8.354;2023-05-14T14:32:45;22.80;95.40
16955;DHT22;8594;52.052;8.354;2023-05-14T14:35:16;22.80;95.00
16955;DHT22;8594;52.052;8.354;2023-05-14T14:37:44;22.50;94.80
16955;DHT22;8594;52.052;8.354;2023-05-14T14:40:14;22.50;95.20
16955;DHT22;8594;52.052;8.354;2023-05-14T14:42:42;22.50;95.00
16955;DHT22;8594;52.052;8.354;2023-05-14T14:45:10;22.50;94.70
16955;DHT22;8594;52.052;8.354;2023-05-14T14:47:37;22.80;94.20
16955;DHT22;8594;52.052;8.354;2023-05-14T14:50:05;22.90;94.70
16955;DHT22;8594;52.052;8.354;2023-05-14T14:52:34;23.00;95.20
16955;DHT22;8594;52.052;8.354;2023-05-14T14:55:01;23.10;95.60
16955;DHT22;8594;52.052;8.354;2023-05-14T14:57:28;23.30;95.40
16955;DHT22;8594;52.052;8.354;2023-05-14T14:59:55;23.10;93.90
16955;DHT22;8594;52.052;8.354;2023-05-14T15:02:22;23.00;94.50
16955;DHT22;8594;52.052;8.354;2023-05-14T15:04:50;22.90;94.10
16955;DHT22;8594;52.052;8.354;2023-05-14T15:07:16;22.90;93.90
16955;DHT22;8594;52.052;8.354;2023-05-14T15:09:46;22.90;94.40
16955;DHT22;8594;52.052;8.354;2023-05-14T15:12:13;23.20;93.80
16955;DHT22;8594;52.052;8.354;2023-05-14T15:14:41;23.30;93.60
16955;DHT22;8594;52.052;8.354;2023-05-14T15:17:08;23.50;93.50
16955;DHT22;8594;52.052;8.354;2023-05-14T15:19:35;23.70;94.10
16955;DHT22;8594;52.052;8.354;2023-05-14T15:22:02;23.50;93.30
16955;DHT22;8594;52.052;8.354;2023-05-14T15:24:29;23.70;94.30
16955;DHT22;8594;52.052;8.354;2023-05-14T15:26:57;23.60;93.30
16955;DHT22;8594;52.052;8.354;2023-05-14T15:29:24;23.90;92.30
16955;DHT22;8594;52.052;8.354;2023-05-14T15:31:51;23.80;92.50
16955;DHT22;8594;52.052;8.354;2023-05-14T15:34:17;23.70;92.10
16955;DHT22;8594;52.052;8.354;2023-05-14T15:36:44;23.70;92.00
16955;DHT22;8594;52.052;8.354;2023-05-14T15:39:11;23.80;91.90
16955;DHT22;8594;52.052;8.354;2023-05-14T15:41:38;23.80;92.10
16955;DHT22;8594;52.052;8.354;2023-05-14T15:44:06;23.80;94.70
16955;DHT22;8594;52.052;8.354;2023-05-14T15:46:33;23.50;94.90
16955;DHT22;8594;52.052;8.354;2023-05-14T15:49:02;23.20;95.70
16955;DHT22;8594;52.052;8.354;2023-05-14T15:51:29;23.30;95.00